Impacts TAF Board INFO
FOR SITUATIONAL AWARENESS. NOT TO BE USED FOR FLIGHT PLANNING PURPOSES.
IDs:

KGPT - Gulfport-Biloxi Intl, MS, US

Issued at 0526 UTC 23 Feb 2018
Updated at 1038 UTC 23 Feb 2018
Potential Impact None Slight Moderate High
Time<<23/23Z 24/00Z 24/01Z 24/02Z 24/03Z 24/04Z 24/05Z 24/06Z 24/07Z 24/08Z 24/09Z 24/10Z 24/11Z>>
Type PRVL
  [PRB30]  
PRVL PRVL PRVL PRVL PRVL PRVL
VIS >6
  [4]  
>6 >6 >6 >6 >6 >6
CIG 35
  [20]  
15 15 15 15 15 15
Cover BKN
  [BKN]  
BKN BKN BKN BKN BKN BKN
FltCat VFR
  [MVFR]  
MVFR MVFR MVFR MVFR MVFR MVFR
WX --
  [-TSRA]  
-- -- -- -- -- --
WDir 130
[130]
130 130 130 130 130 130
WSpd 10
  [10]  
8 8 8 8 8 8
WGst --
  [--]  
-- -- -- -- -- --

Raw TAF
KGPT 230526Z 2306/2406 12008KT P6SM SCT008 BKN014
  TEMPO 2306/2310 5SM BR BKN008
  FM231000 12007KT 5SM BR BKN006
  TEMPO 2310/2314 1 1/2SM BR BKN004
  FM231600 12008KT P6SM BKN025
  FM231900 13010KT P6SM SCT025 BKN035
  PROB30 2319/2324 4SM -TSRA BKN020CB
  FM240000 13008KT P6SM BKN015


METAR Board
Radar Display
Forecast Discussion

FOR SITUATIONAL AWARENESS. NOT TO BE USED FOR FLIGHT PLANNING PURPOSES.